createdAt,value
2019-02-16T00:00:47.732Z,96688.9
2019-02-16T00:01:50.165Z,96682.8
2019-02-16T00:02:52.050Z,96687.5
2019-02-16T00:03:54.214Z,96683.4
2019-02-16T00:04:56.082Z,96684.3
2019-02-16T00:05:58.530Z,96682.5
2019-02-16T00:07:00.695Z,96686.2
2019-02-16T00:08:03.122Z,96683.5
2019-02-16T00:09:05.546Z,96679.7
2019-02-16T00:10:07.690Z,96684.2
2019-02-16T00:11:10.105Z,96685.5
2019-02-16T00:12:12.532Z,96685.3
2019-02-16T00:13:14.962Z,96681.1
2019-02-16T00:14:16.844Z,96683.7
2019-02-16T00:15:19.013Z,96680.2
2019-02-16T00:16:21.165Z,96682
2019-02-16T00:17:23.594Z,96682.4
2019-02-16T00:18:25.769Z,96681.8
2019-02-16T00:19:27.936Z,96677.9
2019-02-16T00:20:29.824Z,96677.4
2019-02-16T00:21:31.999Z,96679.4
2019-02-16T00:22:34.431Z,96679.8
2019-02-16T00:23:36.865Z,96676.9
2019-02-16T00:24:39.011Z,96677.2
2019-02-16T00:25:41.174Z,96674.9
2019-02-16T00:26:43.590Z,96677
2019-02-16T00:27:45.736Z,96675.1
2019-02-16T00:28:48.425Z,96675.3
2019-02-16T00:29:50.868Z,96672.5
2019-02-16T00:30:53.296Z,96676.9
2019-02-16T00:31:55.732Z,96679.2
2019-02-16T00:32:58.193Z,96676.8
2019-02-16T00:34:00.603Z,96679.1
2019-02-16T00:35:02.787Z,96680.8
2019-02-16T00:36:05.202Z,96675.6
2019-02-16T00:37:07.356Z,96677.9
2019-02-16T00:38:09.823Z,96676.9
2019-02-16T00:39:11.942Z,96679.9
2019-02-16T00:40:13.828Z,96678.9
2019-02-16T00:41:15.710Z,96676.3
2019-02-16T00:42:18.136Z,96673.5
2019-02-16T00:43:20.565Z,96675.6
2019-02-16T00:44:22.710Z,96676.1
2019-02-16T00:45:24.888Z,96672.4
2019-02-16T00:46:27.050Z,96677.2
2019-02-16T00:47:29.200Z,96675.1
2019-02-16T00:48:31.629Z,96674.4
2019-02-16T00:49:34.072Z,96681.4
2019-02-16T00:50:36.214Z,96677.5
2019-02-16T00:51:38.420Z,96675.2
2019-02-16T00:52:40.566Z,96675.1
2019-02-16T00:53:43.005Z,96674.1
2019-02-16T00:54:45.162Z,96673.3
2019-02-16T00:55:47.545Z,96675.4
2019-02-16T00:56:49.685Z,96677.7
2019-02-16T00:57:52.111Z,96676.4
2019-02-16T00:58:54.555Z,96675
2019-02-16T00:59:56.975Z,96672.8
2019-02-16T01:00:59.122Z,96668.2
2019-02-16T01:02:01.616Z,96668
2019-02-16T01:03:03.789Z,96673.3
2019-02-16T01:04:05.934Z,96670.4
2019-02-16T01:05:08.346Z,96667.6
2019-02-16T01:06:10.476Z,96663.3
2019-02-16T01:07:12.901Z,96663.1
2019-02-16T01:08:15.336Z,96662.3
2019-02-16T01:09:17.775Z,96663.9
2019-02-16T01:10:20.218Z,96664.3
2019-02-16T01:11:22.631Z,96656.5
2019-02-16T01:12:24.773Z,96656.7
2019-02-16T01:13:27.203Z,96659.7
2019-02-16T01:14:29.064Z,96655.8
2019-02-16T01:15:31.218Z,96658.3
2019-02-16T01:16:33.375Z,96657.1
2019-02-16T01:17:35.791Z,96655.5
2019-02-16T01:18:38.230Z,96655.6
2019-02-16T01:19:40.373Z,96652.7
2019-02-16T01:20:42.252Z,96653.6
2019-02-16T01:21:44.685Z,96650.9
2019-02-16T01:22:46.826Z,96643.7
2019-02-16T01:23:49.028Z,96650.2
2019-02-16T01:24:51.172Z,96650
2019-02-16T01:25:53.595Z,96650.1
2019-02-16T01:26:56.035Z,96646.1
2019-02-16T01:27:58.207Z,96649.6
2019-02-16T01:29:00.646Z,96645.4
2019-02-16T01:30:02.517Z,96645.9
2019-02-16T01:31:04.937Z,96650.2
2019-02-16T01:32:07.358Z,96648.4
2019-02-16T01:33:09.503Z,96648.3
2019-02-16T01:34:11.938Z,96646.9
2019-02-16T01:35:14.166Z,96650.8
2019-02-16T01:36:16.285Z,96649.4
2019-02-16T01:37:18.712Z,96647.8
2019-02-16T01:38:20.891Z,96646.1
2019-02-16T01:39:23.324Z,96647
2019-02-16T01:40:25.766Z,96649
2019-02-16T01:41:28.200Z,96646.1
2019-02-16T01:42:30.361Z,96648.2
2019-02-16T01:43:32.506Z,96651.1
2019-02-16T01:44:34.929Z,96646.4
2019-02-16T01:45:36.806Z,96646.7
2019-02-16T01:46:39.233Z,96654.5
2019-02-16T01:47:41.402Z,96649.1
2019-02-16T01:48:43.544Z,96650.8
2019-02-16T01:49:45.971Z,96649.6
2019-02-16T01:50:48.119Z,96649.9
2019-02-16T01:51:50.262Z,96647
2019-02-16T01:52:52.422Z,96645.8
2019-02-16T01:53:54.850Z,96641.3
2019-02-16T01:54:57.285Z,96640.5
2019-02-16T01:55:59.443Z,96641.5
2019-02-16T01:57:01.868Z,96638.1
2019-02-16T01:58:03.720Z,96637.8
2019-02-16T01:59:05.591Z,96637.9
2019-02-16T02:00:07.483Z,96637.3
2019-02-16T02:01:09.626Z,96632
2019-02-16T02:02:11.988Z,96640.1
2019-02-16T02:03:14.392Z,96633
2019-02-16T02:04:16.546Z,96628.8
2019-02-16T02:05:18.976Z,96628.2
2019-02-16T02:06:21.397Z,96627
2019-02-16T02:07:23.831Z,96623.8
2019-02-16T02:08:26.280Z,96624.2
2019-02-16T02:09:28.459Z,96616.4
2019-02-16T02:10:30.897Z,96617.9
2019-02-16T02:11:33.052Z,96618.4
2019-02-16T02:12:35.196Z,96621.3
2019-02-16T02:13:37.636Z,96621.8
2019-02-16T02:14:40.056Z,96618.9
2019-02-16T02:15:42.828Z,96615.9
2019-02-16T02:16:44.972Z,96615.6
2019-02-16T02:17:47.106Z,96615.6
2019-02-16T02:18:49.528Z,96615.8
2019-02-16T02:19:51.961Z,96617.9
2019-02-16T02:20:53.852Z,96621
2019-02-16T02:21:56.285Z,96616.5
2019-02-16T02:22:58.452Z,96618.3
2019-02-16T02:24:00.615Z,96619.6
2019-02-16T02:25:03.033Z,96610.3
2019-02-16T02:26:04.903Z,96606
2019-02-16T02:27:07.330Z,96615.8
2019-02-16T02:28:09.485Z,96611.9
2019-02-16T02:29:11.902Z,96610.1
2019-02-16T02:30:14.104Z,96606.5
2019-02-16T02:31:16.249Z,96610.9
2019-02-16T02:32:18.674Z,96611.5
2019-02-16T02:33:21.107Z,96609.9
2019-02-16T02:34:23.535Z,96616.7
2019-02-16T02:35:25.967Z,96620.3
2019-02-16T02:36:28.403Z,96618.6
2019-02-16T02:37:29.736Z,96619.2
2019-02-16T02:38:31.905Z,96614.9
2019-02-16T02:39:33.787Z,96613.1
2019-02-16T02:40:36.214Z,96622.7
2019-02-16T02:41:37.825Z,96623.1
2019-02-16T02:42:39.980Z,96626.6
2019-02-16T02:43:41.870Z,96632.5
2019-02-16T02:44:44.302Z,96627.5
2019-02-16T02:45:46.735Z,96624.6
2019-02-16T02:46:48.968Z,96625.6
2019-02-16T02:47:51.136Z,96628.1
2019-02-16T02:48:53.565Z,96620.4
2019-02-16T02:49:55.992Z,96620.9
2019-02-16T02:50:58.139Z,96615.3
2019-02-16T02:52:00.574Z,96621.1
2019-02-16T02:53:02.474Z,96617
2019-02-16T02:54:04.655Z,96616.9
2019-02-16T02:55:06.808Z,96617.2
2019-02-16T02:56:08.701Z,96624.7
2019-02-16T02:57:10.577Z,96628.8
2019-02-16T02:58:12.742Z,96623.9
2019-02-16T02:59:15.164Z,96626.2
2019-02-16T03:00:17.590Z,96625.7
2019-02-16T03:01:20.008Z,96622.1
2019-02-16T03:02:22.150Z,96618
2019-02-16T03:03:24.304Z,96619.7
2019-02-16T03:04:26.500Z,96621.8
2019-02-16T03:05:28.925Z,96632.3
2019-02-16T03:06:31.346Z,96630.6
2019-02-16T03:07:33.238Z,96631.4
2019-02-16T03:08:35.662Z,96624.4
2019-02-16T03:09:38.104Z,96633
2019-02-16T03:10:40.006Z,96627.4
2019-02-16T03:11:42.142Z,96626.1
2019-02-16T03:12:44.582Z,96629.3
2019-02-16T03:13:47.018Z,96629.8
2019-02-16T03:14:49.684Z,96633.4
2019-02-16T03:15:51.848Z,96627.9
2019-02-16T03:16:54.271Z,96627.1
2019-02-16T03:17:56.426Z,96625.9
2019-02-16T03:18:58.904Z,96625.3
2019-02-16T03:20:01.274Z,96618.9
2019-02-16T03:21:03.427Z,96621.5
2019-02-16T03:22:05.852Z,96620.7
2019-02-16T03:23:07.720Z,96621.7
2019-02-16T03:24:10.140Z,96622.4
2019-02-16T03:25:12.560Z,96616.8
2019-02-16T03:26:14.712Z,96618.2
2019-02-16T03:27:16.598Z,96614.8
2019-02-16T03:28:18.755Z,96613.5
2019-02-16T03:29:20.626Z,96609.1
2019-02-16T03:30:23.073Z,96609.1
2019-02-16T03:31:25.517Z,96608.5
2019-02-16T03:32:27.967Z,96605.5
2019-02-16T03:33:30.110Z,96608.7
2019-02-16T03:34:32.522Z,96609.9
2019-02-16T03:35:34.660Z,96613.5
2019-02-16T03:36:36.828Z,96609.4
2019-02-16T03:37:38.716Z,96610
2019-02-16T03:38:40.874Z,96610.1
2019-02-16T03:39:42.774Z,96616.3
2019-02-16T03:40:45.197Z,96619.7
2019-02-16T03:41:47.360Z,96621.6
2019-02-16T03:42:50.003Z,96624
2019-02-16T03:43:52.417Z,96621.9
2019-02-16T03:44:54.832Z,96624.3
2019-02-16T03:45:57.265Z,96624.3
2019-02-16T03:46:59.424Z,96616.6
2019-02-16T03:48:01.848Z,96624.6
2019-02-16T03:49:04.002Z,96618
2019-02-16T03:50:06.445Z,96620.4
2019-02-16T03:51:08.866Z,96620.9
2019-02-16T03:53:16.011Z,96622.7
2019-02-16T03:54:18.436Z,96624
2019-02-16T03:55:20.579Z,96623.8
2019-02-16T03:56:23.000Z,96621
2019-02-16T03:57:24.622Z,96620.9
2019-02-16T03:58:27.058Z,96623.3
2019-02-16T03:59:29.205Z,96623.3
2019-02-16T04:00:31.357Z,96622.4
2019-02-16T04:01:34.141Z,96624.4
2019-02-16T04:02:36.607Z,96629.1
2019-02-16T04:03:38.758Z,96621
2019-02-16T04:04:40.920Z,96624.7
2019-02-16T04:05:43.047Z,96627.2
2019-02-16T04:06:45.394Z,96626.3
2019-02-16T04:07:48.050Z,96626
2019-02-16T04:08:50.476Z,96627.6
2019-02-16T04:09:52.915Z,96629.1
2019-02-16T04:10:55.064Z,96629.4
2019-02-16T04:11:57.502Z,96626.5
2019-02-16T04:12:59.936Z,96628.6
2019-02-16T04:14:02.370Z,96623.6
2019-02-16T04:15:04.254Z,96628.1
2019-02-16T04:16:06.684Z,96625
2019-02-16T04:17:08.834Z,96623.9
2019-02-16T04:18:11.258Z,96627.5
2019-02-16T04:19:13.413Z,96628.9
2019-02-16T04:20:15.832Z,96629
2019-02-16T04:21:17.687Z,96627.6
2019-02-16T04:23:24.835Z,96633.1
2019-02-16T04:24:26.720Z,96634.2
2019-02-16T04:25:29.165Z,96633.1
2019-02-16T04:26:31.599Z,96630.7
2019-02-16T04:27:34.023Z,96634.7
2019-02-16T04:28:35.886Z,96635.3
2019-02-16T04:29:38.314Z,96637.1
2019-02-16T04:30:40.742Z,96637
2019-02-16T04:31:42.945Z,96640.7
2019-02-16T04:32:45.365Z,96636.6
2019-02-16T04:33:47.284Z,96635.8
2019-02-16T04:34:49.512Z,96635.8
2019-02-16T04:35:51.930Z,96638.6
2019-02-16T04:36:53.814Z,96636
2019-02-16T04:37:56.240Z,96638.3
2019-02-16T04:38:58.415Z,96634.8
2019-02-16T04:40:00.864Z,96635.8
2019-02-16T04:41:03.292Z,96630.4
2019-02-16T04:42:05.185Z,96638.4
2019-02-16T04:43:07.332Z,96634.2
2019-02-16T04:44:09.488Z,96630.5
2019-02-16T04:45:11.902Z,96633
2019-02-16T04:46:14.064Z,96631.8
2019-02-16T04:47:16.222Z,96628.6
2019-02-16T04:48:18.646Z,96630.6
2019-02-16T04:49:20.796Z,96630.3
2019-02-16T04:50:22.951Z,96628.7
2019-02-16T04:51:24.805Z,96628.2
2019-02-16T04:53:31.925Z,96629.9
2019-02-16T04:54:34.080Z,96627.6
2019-02-16T04:55:36.512Z,96629.1
2019-02-16T04:56:38.934Z,96634.3
2019-02-16T04:57:41.162Z,96631.7
2019-02-16T04:58:43.779Z,96634
2019-02-16T04:59:45.645Z,96633.6
2019-02-16T05:00:48.064Z,96638
2019-02-16T05:01:50.519Z,96644.7
2019-02-16T05:02:52.674Z,96641.2
2019-02-16T05:03:54.851Z,96640.7
2019-02-16T05:04:57.015Z,96641.2
2019-02-16T05:06:01.278Z,96640.7
2019-02-16T05:07:03.728Z,96640.2
2019-02-16T05:08:06.166Z,96641.2
2019-02-16T05:09:08.598Z,96645.2
2019-02-16T05:10:10.766Z,96642.4
2019-02-16T05:11:12.897Z,96646.1
2019-02-16T05:12:15.345Z,96648.6
2019-02-16T05:13:17.782Z,96647
2019-02-16T05:14:20.204Z,96649.9
2019-02-16T05:15:22.381Z,96646.4
2019-02-16T05:16:24.276Z,96645.8
2019-02-16T05:17:26.694Z,96650.2
2019-02-16T05:18:29.117Z,96648.7
2019-02-16T05:19:30.988Z,96647.7
2019-02-16T05:20:33.408Z,96647.8
2019-02-16T05:21:35.568Z,96647.7
2019-02-16T05:23:42.693Z,96647.8
2019-02-16T05:24:44.840Z,96650.3
2019-02-16T05:25:46.994Z,96651.8
2019-02-16T05:26:48.862Z,96651.5
2019-02-16T05:27:51.015Z,96651
2019-02-16T05:28:52.628Z,96657.1
2019-02-16T05:29:55.053Z,96657
2019-02-16T05:30:57.482Z,96659.2
2019-02-16T05:31:59.920Z,96663.7
2019-02-16T05:33:02.340Z,96663.4
2019-02-16T05:34:04.788Z,96659.5
2019-02-16T05:35:06.951Z,96662.4
2019-02-16T05:36:09.365Z,96657.5
2019-02-16T05:37:11.254Z,96658.8
2019-02-16T05:38:13.692Z,96665.5
2019-02-16T05:39:16.107Z,96659
2019-02-16T05:40:18.525Z,96658
2019-02-16T05:41:20.705Z,96662.3
2019-02-16T05:42:22.582Z,96660.7
2019-02-16T05:43:24.455Z,96664.9
2019-02-16T05:44:26.596Z,96665.8
2019-02-16T05:45:29.023Z,96665.4
2019-02-16T05:46:31.445Z,96672.6
2019-02-16T05:47:33.898Z,96674.6
2019-02-16T05:48:36.330Z,96673.3
2019-02-16T05:49:38.765Z,96676
2019-02-16T05:50:40.909Z,96678.8
2019-02-16T05:51:42.772Z,96680.5
2019-02-16T05:53:50.651Z,96684.8
2019-02-16T05:54:52.820Z,96687
2019-02-16T05:55:54.971Z,96689
2019-02-16T05:56:56.826Z,96689.8
2019-02-16T05:57:59.254Z,96688.3
2019-02-16T05:59:01.675Z,96689.1
2019-02-16T06:00:04.102Z,96684.2
2019-02-16T06:01:06.258Z,96687.9
2019-02-16T06:02:08.696Z,96687.9
2019-02-16T06:03:11.118Z,96691.2
2019-02-16T06:04:13.542Z,96690.8
2019-02-16T06:05:15.977Z,96693.8
2019-02-16T06:06:18.115Z,96689.9
2019-02-16T06:07:20.544Z,96694.8
2019-02-16T06:08:22.983Z,96697.4
2019-02-16T06:09:25.169Z,96693.5
2019-02-16T06:10:27.593Z,96700
2019-02-16T06:11:30.036Z,96696
2019-02-16T06:12:32.453Z,96694.8
2019-02-16T06:13:34.881Z,96694.9
2019-02-16T06:14:37.045Z,96699.9
2019-02-16T06:15:39.478Z,96704.1
2019-02-16T06:16:41.628Z,96704.6
2019-02-16T06:17:43.500Z,96705.4
2019-02-16T06:18:45.660Z,96709.9
2019-02-16T06:19:48.084Z,96711.8
2019-02-16T06:20:50.257Z,96707.9
2019-02-16T06:21:52.674Z,96709.2
2019-02-16T06:24:00.325Z,96711.4
2019-02-16T06:25:02.754Z,96711.9
2019-02-16T06:26:05.199Z,96712.8
2019-02-16T06:27:07.345Z,96714.3
2019-02-16T06:28:09.773Z,96716.3
2019-02-16T06:29:12.190Z,96714.6
2019-02-16T06:30:14.347Z,96715.9
2019-02-16T06:31:16.777Z,96714.2
2019-02-16T06:32:19.237Z,96719
2019-02-16T06:33:21.094Z,96720.1
2019-02-16T06:34:23.240Z,96722.5
2019-02-16T06:35:25.409Z,96724.7
2019-02-16T06:36:27.840Z,96722.3
2019-02-16T06:37:29.702Z,96725.8
2019-02-16T06:38:31.855Z,96725.3
2019-02-16T06:39:34.002Z,96722.2
2019-02-16T06:40:36.162Z,96724.2
2019-02-16T06:41:38.038Z,96723.3
2019-02-16T06:42:40.198Z,96725.1
2019-02-16T06:43:42.365Z,96725
2019-02-16T06:44:44.787Z,96720.6
2019-02-16T06:45:47.210Z,96731.4
2019-02-16T06:46:49.625Z,96725.1
2019-02-16T06:47:52.053Z,96728.8
2019-02-16T06:48:54.192Z,96725.3
2019-02-16T06:49:56.348Z,96731.6
2019-02-16T06:50:58.772Z,96729.2
2019-02-16T06:52:00.902Z,96733
2019-02-16T06:53:02.766Z,96737.5
2019-02-16T06:54:04.900Z,96733.7
2019-02-16T06:55:06.504Z,96738.8
2019-02-16T06:56:08.949Z,96742.8
2019-02-16T06:57:10.856Z,96742
2019-02-16T06:58:12.760Z,96741.1
2019-02-16T06:59:14.935Z,96743
2019-02-16T07:00:17.063Z,96743.6
2019-02-16T07:01:19.259Z,96744.8
2019-02-16T07:02:21.697Z,96744.5
2019-02-16T07:03:23.594Z,96743.1
2019-02-16T07:04:26.041Z,96743.4
2019-02-16T07:05:28.194Z,96739.4
2019-02-16T07:06:30.636Z,96742.2
2019-02-16T07:07:33.176Z,96735.7
2019-02-16T07:08:35.076Z,96739.4
2019-02-16T07:09:37.527Z,96739.8
2019-02-16T07:10:39.708Z,96741.6
2019-02-16T07:11:42.147Z,96744.1
2019-02-16T07:12:44.053Z,96738.9
2019-02-16T07:13:45.917Z,96740
2019-02-16T07:14:47.796Z,96736.7
2019-02-16T07:15:50.237Z,96741.1
2019-02-16T07:16:52.713Z,96741
2019-02-16T07:17:55.143Z,96742.1
2019-02-16T07:18:57.564Z,96737.8
2019-02-16T07:19:59.727Z,96745.1
2019-02-16T07:21:01.782Z,96741.8
2019-02-16T07:22:04.223Z,96745
2019-02-16T07:23:06.084Z,96744.6
2019-02-16T07:24:08.244Z,96743.4
2019-02-16T07:25:10.681Z,96742.5
2019-02-16T07:26:12.546Z,96744.3
2019-02-16T07:27:14.431Z,96743.6
2019-02-16T07:28:16.852Z,96744.1
2019-02-16T07:29:19.282Z,96744.5
2019-02-16T07:30:21.720Z,96745.8
2019-02-16T07:31:23.878Z,96744
2019-02-16T07:32:26.308Z,96746.6
2019-02-16T07:33:28.449Z,96746.7
2019-02-16T07:34:30.616Z,96752.1
2019-02-16T07:35:32.495Z,96745.6
2019-02-16T07:36:34.672Z,96750
2019-02-16T07:37:37.101Z,96745.5
2019-02-16T07:38:39.544Z,96751.8
2019-02-16T07:39:41.722Z,96749.2
2019-02-16T07:40:43.948Z,96747.4
2019-02-16T07:41:46.096Z,96746.8
2019-02-16T07:42:48.244Z,96748.1
2019-02-16T07:43:50.374Z,96746.5
2019-02-16T07:44:51.969Z,96745.8
2019-02-16T07:45:54.395Z,96751.7
2019-02-16T07:46:56.560Z,96746.1
2019-02-16T07:47:58.713Z,96746.9
2019-02-16T07:49:00.885Z,96751.2
2019-02-16T07:50:03.044Z,96748.4
2019-02-16T07:51:05.208Z,96748.4
2019-02-16T07:52:07.636Z,96746.1
2019-02-16T07:53:09.799Z,96748
2019-02-16T07:54:11.956Z,96743.4
2019-02-16T07:55:14.139Z,96743.4
2019-02-16T07:56:16.587Z,96741.5
2019-02-16T07:57:19.021Z,96745.8
2019-02-16T07:58:21.168Z,96743.8
2019-02-16T07:59:23.592Z,96743
2019-02-16T08:00:26.062Z,96743.5
2019-02-16T08:01:28.202Z,96743.8
2019-02-16T08:02:30.628Z,96748.2
2019-02-16T08:03:33.067Z,96743.8
2019-02-16T08:04:35.486Z,96745.1
2019-02-16T08:05:37.954Z,96742.5
2019-02-16T08:06:39.844Z,96743.8
2019-02-16T08:07:44.388Z,96743.8
2019-02-16T08:08:46.846Z,96745.4
2019-02-16T08:09:49.272Z,96745.2
2019-02-16T08:10:50.868Z,96739.5
2019-02-16T08:11:53.431Z,96745.9
2019-02-16T08:12:55.717Z,96748.8
2019-02-16T08:13:59.806Z,96749.5
2019-02-16T08:15:03.240Z,96751.8
2019-02-16T08:16:05.578Z,96746.7
2019-02-16T08:17:08.758Z,96749.2
2019-02-16T08:18:11.019Z,96750
2019-02-16T08:19:13.491Z,96744.9
2019-02-16T08:20:15.922Z,96746.8
2019-02-16T08:21:18.364Z,96741.8
2019-02-16T08:22:20.277Z,96742.9
2019-02-16T08:23:22.446Z,96742
2019-02-16T08:24:24.595Z,96740.3
2019-02-16T08:25:26.479Z,96739
2019-02-16T08:26:28.908Z,96736.8
2019-02-16T08:27:31.038Z,96739.9
2019-02-16T08:28:33.467Z,96736.9
2019-02-16T08:29:35.905Z,96727.5
2019-02-16T08:30:38.341Z,96729.3
2019-02-16T08:31:40.770Z,96728
2019-02-16T08:32:42.927Z,96727.6
2019-02-16T08:33:45.097Z,96723.9
2019-02-16T08:34:46.978Z,96727.7
2019-02-16T08:35:49.406Z,96725.4
2019-02-16T08:36:51.586Z,96731.4
2019-02-16T08:37:53.462Z,96726.5
2019-02-16T08:38:55.904Z,96725.5
2019-02-16T08:39:58.047Z,96725.9
2019-02-16T08:41:00.487Z,96727.6
2019-02-16T08:42:02.644Z,96723.2
2019-02-16T08:43:04.815Z,96723.5
2019-02-16T08:44:07.249Z,96717.9
2019-02-16T08:45:09.682Z,96725.5
2019-02-16T08:46:11.835Z,96722.6
2019-02-16T08:47:13.988Z,96727.5
2019-02-16T08:48:16.465Z,96725.7
2019-02-16T08:49:18.902Z,96727.9
2019-02-16T08:50:21.335Z,96724.7
2019-02-16T08:51:23.760Z,96725
2019-02-16T08:52:25.935Z,96720.7
2019-02-16T08:53:28.087Z,96722.6
2019-02-16T08:54:30.545Z,96719.6
2019-02-16T08:55:32.970Z,96721.4
2019-02-16T08:56:35.407Z,96725.3
2019-02-16T08:57:37.859Z,96721.1
2019-02-16T08:58:40.307Z,96721.4
2019-02-16T08:59:42.186Z,96723.1
2019-02-16T09:00:44.637Z,96722.8
2019-02-16T09:01:46.797Z,96722
2019-02-16T09:02:49.004Z,96721.1
2019-02-16T09:03:50.882Z,96722.2
2019-02-16T09:04:53.322Z,96723.9
2019-02-16T09:05:55.192Z,96723.7
2019-02-16T09:06:59.135Z,96722
2019-02-16T09:08:01.314Z,96715.5
2019-02-16T09:09:03.738Z,96724
2019-02-16T09:10:06.170Z,96718.1
2019-02-16T09:11:08.601Z,96720.4
2019-02-16T09:12:10.224Z,96713.4
2019-02-16T09:13:12.154Z,96708.5
2019-02-16T09:14:14.069Z,96706.9
2019-02-16T09:15:15.662Z,96706.4
2019-02-16T09:16:17.813Z,96708.1
2019-02-16T09:17:20.252Z,96706
2019-02-16T09:18:22.682Z,96707.5
2019-02-16T09:19:25.137Z,96707.3
2019-02-16T09:20:27.271Z,96711.6
2019-02-16T09:21:29.416Z,96705
2019-02-16T09:22:31.581Z,96706.5
2019-02-16T09:23:33.746Z,96703
2019-02-16T09:24:35.897Z,96706.8
2019-02-16T09:25:38.063Z,96709.5
2019-02-16T09:26:40.224Z,96708.2
2019-02-16T09:27:42.394Z,96712.1
2019-02-16T09:28:44.282Z,96710.2
2019-02-16T09:29:46.134Z,96708.8
2019-02-16T09:30:48.565Z,96704.6
2019-02-16T09:31:51.015Z,96703.9
2019-02-16T09:32:53.194Z,96707.6
2019-02-16T09:33:55.628Z,96704.3
2019-02-16T09:34:58.060Z,96706.8
2019-02-16T09:36:00.227Z,96715
2019-02-16T09:37:02.394Z,96706.4
2019-02-16T09:38:04.825Z,96712.8
2019-02-16T09:39:06.693Z,96714
2019-02-16T09:40:08.380Z,96712.2
2019-02-16T09:41:10.814Z,96710.8
2019-02-16T09:42:13.279Z,96705.3
2019-02-16T09:43:15.705Z,96711.1
2019-02-16T09:44:17.853Z,96706.5
2019-02-16T09:45:20.032Z,96704.6
2019-02-16T09:46:22.456Z,96704.4
2019-02-16T09:47:24.896Z,96706.9
2019-02-16T09:48:27.336Z,96700.8
2019-02-16T09:49:29.494Z,96698.2
2019-02-16T09:50:31.626Z,96701.1
2019-02-16T09:51:33.786Z,96700.8
2019-02-16T09:52:35.912Z,96701.7
2019-02-16T09:53:38.064Z,96698.9
2019-02-16T09:54:40.494Z,96702.5
2019-02-16T09:55:42.423Z,96700.5
2019-02-16T09:56:44.563Z,96704.6
2019-02-16T09:57:46.984Z,96698.1
2019-02-16T09:58:49.417Z,96705.3
2019-02-16T09:59:51.297Z,96705.1
2019-02-16T10:00:52.893Z,96704.4
2019-02-16T10:01:55.049Z,96704.8
2019-02-16T10:02:57.214Z,96700.4
2019-02-16T10:03:59.369Z,96698.6
2019-02-16T10:05:01.919Z,96702
2019-02-16T10:06:04.342Z,96697.9
2019-02-16T10:07:06.504Z,96692.9
2019-02-16T10:08:08.388Z,96697.9
2019-02-16T10:09:10.827Z,96700.4
2019-02-16T10:10:12.994Z,96696.7
2019-02-16T10:11:14.870Z,96694
2019-02-16T10:12:16.764Z,96700.5
2019-02-16T10:13:19.196Z,96700.4
2019-02-16T10:14:21.364Z,96700.2
2019-02-16T10:15:23.866Z,96697.8
2019-02-16T10:16:26.293Z,96697.8
2019-02-16T10:17:28.724Z,96692
2019-02-16T10:18:30.882Z,96693.5
2019-02-16T10:19:33.036Z,96690
2019-02-16T10:20:35.202Z,96695
2019-02-16T10:21:37.638Z,96698.7
2019-02-16T10:22:41.614Z,96694.8
2019-02-16T10:23:43.776Z,96697.7
2019-02-16T10:24:45.978Z,96692.4
2019-02-16T10:25:48.405Z,96695.5
2019-02-16T10:26:50.856Z,96691.7
2019-02-16T10:27:53.294Z,96693.4
2019-02-16T10:28:55.724Z,96696.5
2019-02-16T10:29:58.147Z,96694
2019-02-16T10:31:02.183Z,96693.2
2019-02-16T10:32:04.656Z,96695.2
2019-02-16T10:33:07.099Z,96696.2
2019-02-16T10:34:09.526Z,96698.7
2019-02-16T10:35:11.954Z,96695.6
2019-02-16T10:36:14.562Z,96695.6
2019-02-16T10:37:16.694Z,96698.1
2019-02-16T10:38:19.126Z,96696.7
2019-02-16T10:39:21.568Z,96700.4
2019-02-16T10:40:23.736Z,96696.2
2019-02-16T10:41:26.166Z,96701.7
2019-02-16T10:42:28.589Z,96699.9
2019-02-16T10:43:31.011Z,96697.4
2019-02-16T10:44:33.450Z,96697
2019-02-16T10:45:35.068Z,96697.9
2019-02-16T10:46:37.508Z,96697.6
2019-02-16T10:47:39.662Z,96693.6
2019-02-16T10:48:42.093Z,96698
2019-02-16T10:49:43.964Z,96694.6
2019-02-16T10:50:46.394Z,96695.4
2019-02-16T10:51:48.834Z,96692
2019-02-16T10:52:51.259Z,96694.2
2019-02-16T10:53:53.422Z,96689.1
2019-02-16T10:54:55.845Z,96685.3
2019-02-16T10:55:58.012Z,96687.9
2019-02-16T10:57:00.175Z,96686.1
2019-02-16T10:58:02.354Z,96688.2
2019-02-16T10:59:04.242Z,96691.3
2019-02-16T11:00:06.669Z,96688.9
2019-02-16T11:01:09.132Z,96685.8
2019-02-16T11:02:11.030Z,96684
2019-02-16T11:03:13.173Z,96683.2
2019-02-16T11:04:15.604Z,96677.8
2019-02-16T11:05:18.057Z,96675.4
2019-02-16T11:06:19.947Z,96676.5
2019-02-16T11:07:22.385Z,96680.8
2019-02-16T11:08:24.863Z,96675.7
2019-02-16T11:09:27.020Z,96673.5
2019-02-16T11:10:29.459Z,96673.3
2019-02-16T11:11:31.663Z,96673.6
2019-02-16T11:12:33.259Z,96672.2
2019-02-16T11:13:35.694Z,96670.3
2019-02-16T11:14:38.130Z,96668.6
2019-02-16T11:15:40.289Z,96672.7
2019-02-16T11:16:42.155Z,96674.8
2019-02-16T11:17:44.334Z,96669.3
2019-02-16T11:18:46.783Z,96668
2019-02-16T11:19:49.214Z,96669.8
2019-02-16T11:20:51.355Z,96668.3
2019-02-16T11:21:53.813Z,96665.9
2019-02-16T11:22:56.241Z,96660.3
2019-02-16T11:23:58.406Z,96660.4
2019-02-16T11:25:00.327Z,96658.4
2019-02-16T11:26:02.226Z,96659.5
2019-02-16T11:27:04.654Z,96663
2019-02-16T11:28:06.806Z,96662.3
2019-02-16T11:29:11.062Z,96659.1
2019-02-16T11:30:13.592Z,96654.9
2019-02-16T11:31:16.031Z,96659.7
2019-02-16T11:32:18.447Z,96661.5
2019-02-16T11:33:20.916Z,96656.6
2019-02-16T11:34:23.056Z,96659
2019-02-16T11:35:25.489Z,96655.8
2019-02-16T11:36:27.627Z,96656.9
2019-02-16T11:37:29.496Z,96651.3
2019-02-16T11:38:31.927Z,96651.4
2019-02-16T11:39:33.811Z,96653.3
2019-02-16T11:40:36.241Z,96653.9
2019-02-16T11:41:38.665Z,96649.9
2019-02-16T11:42:40.785Z,96651.4
2019-02-16T11:43:42.421Z,96649
2019-02-16T11:44:44.590Z,96642.9
2019-02-16T11:45:47.027Z,96641.5
2019-02-16T11:46:49.456Z,96647.7
2019-02-16T11:47:51.881Z,96646.3
2019-02-16T11:48:54.304Z,96647.7
2019-02-16T11:49:56.760Z,96644.3
2019-02-16T11:50:58.657Z,96643.9
2019-02-16T11:52:01.089Z,96641.8
2019-02-16T11:53:02.991Z,96643.3
2019-02-16T11:54:05.179Z,96642.3
2019-02-16T11:55:07.656Z,96639.4
2019-02-16T11:56:10.081Z,96637.9
2019-02-16T11:57:12.515Z,96633.9
2019-02-16T11:58:14.685Z,96633.8
2019-02-16T11:59:17.117Z,96633.7
2019-02-16T12:00:19.563Z,96637.6
2019-02-16T12:01:21.998Z,96635
2019-02-16T12:02:24.145Z,96636
2019-02-16T12:03:26.308Z,96636.4
2019-02-16T12:04:28.743Z,96634.2
2019-02-16T12:05:30.923Z,96633.3
2019-02-16T12:06:33.096Z,96631.8
2019-02-16T12:07:35.533Z,96630.6
2019-02-16T12:08:37.716Z,96632.1
2019-02-16T12:09:40.142Z,96627.4
2019-02-16T12:10:42.605Z,96626.2
2019-02-16T12:11:45.038Z,96628.5
2019-02-16T12:12:47.196Z,96624.6
2019-02-16T12:13:49.355Z,96624.9
2019-02-16T12:14:51.479Z,96624.3
2019-02-16T12:15:53.904Z,96621.2
2019-02-16T12:16:56.333Z,96624.5
2019-02-16T12:17:58.506Z,96618.9
2019-02-16T12:19:00.950Z,96614.9
2019-02-16T12:20:02.837Z,96615.7
2019-02-16T12:21:05.275Z,96615.5
2019-02-16T12:22:07.728Z,96615.5
2019-02-16T12:23:09.629Z,96615.3
2019-02-16T12:24:12.075Z,96613.6
2019-02-16T12:25:14.505Z,96612.4
2019-02-16T12:26:16.667Z,96607
2019-02-16T12:27:19.092Z,96612.1
2019-02-16T12:28:23.042Z,96604.4
2019-02-16T12:29:25.215Z,96606.5
2019-02-16T12:30:27.379Z,96606.1
2019-02-16T12:31:29.810Z,96599.2
2019-02-16T12:32:32.249Z,96598.5
2019-02-16T12:33:34.679Z,96601
2019-02-16T12:34:37.115Z,96598.5
2019-02-16T12:35:39.544Z,96601.2
2019-02-16T12:36:41.972Z,96601.1
2019-02-16T12:37:43.565Z,96596.6
2019-02-16T12:38:45.728Z,96599.7
2019-02-16T12:39:47.925Z,96595.2
2019-02-16T12:40:50.367Z,96596
2019-02-16T12:41:52.792Z,96593.9
2019-02-16T12:42:54.967Z,96588.8
2019-02-16T12:43:56.834Z,96590.6
2019-02-16T12:44:59.285Z,96586.9